createdAt,value
2023-03-05T00:01:07.762Z,98298.72
2023-03-05T00:03:35.443Z,98301.69
2023-03-05T00:06:02.097Z,98296.81
2023-03-05T00:08:29.164Z,98297.88
2023-03-05T00:11:01.275Z,98296.38
2023-03-05T00:13:28.710Z,98290.19
2023-03-05T00:15:55.425Z,98293.13
2023-03-05T00:18:22.540Z,98288.38
2023-03-05T00:20:49.525Z,98292.56
2023-03-05T00:23:16.321Z,98280.56
2023-03-05T00:25:42.977Z,98287.69
2023-03-05T00:28:09.733Z,98289.59
2023-03-05T00:30:36.184Z,98276.25
2023-03-05T00:33:02.707Z,98273.66
2023-03-05T00:35:29.505Z,98273.41
2023-03-05T00:37:55.979Z,98264.97
2023-03-05T00:40:22.572Z,98265.69
2023-03-05T00:42:49.032Z,98258.66
2023-03-05T00:45:23.066Z,98255.09
2023-03-05T00:47:49.456Z,98250.94
2023-03-05T00:50:15.945Z,98251.91
2023-03-05T00:52:42.484Z,98251.41
2023-03-05T00:55:09.221Z,98244.63
2023-03-05T00:57:35.612Z,98245.81
2023-03-05T01:00:02.256Z,98238.88
2023-03-05T01:02:28.670Z,98244.41
2023-03-05T01:04:55.383Z,98249.66
2023-03-05T01:07:21.929Z,98236.00
2023-03-05T01:09:49.572Z,98241.28
2023-03-05T01:12:20.550Z,98227.56
2023-03-05T01:14:47.115Z,98241.00
2023-03-05T01:17:13.682Z,98235.78
2023-03-05T01:19:40.110Z,98243.00
2023-03-05T01:22:06.750Z,98239.31
2023-03-05T01:24:33.223Z,98239.72
2023-03-05T01:27:00.194Z,98233.38
2023-03-05T01:29:27.197Z,98219.16
2023-03-05T01:31:53.734Z,98207.69
2023-03-05T01:34:21.365Z,98218.88
2023-03-05T01:36:50.753Z,98216.53
2023-03-05T01:39:17.447Z,98207.31
2023-03-05T01:41:43.916Z,98205.25
2023-03-05T01:44:31.590Z,98209.00
2023-03-05T01:46:58.040Z,98201.97
2023-03-05T01:49:38.403Z,98218.72
2023-03-05T01:52:11.718Z,98223.38
2023-03-05T01:54:47.260Z,98221.94
2023-03-05T01:57:20.690Z,98221.25
2023-03-05T01:59:50.354Z,98210.78
2023-03-05T02:02:18.793Z,98209.81
2023-03-05T02:04:55.828Z,98216.22
2023-03-05T02:07:22.915Z,98219.34
2023-03-05T02:09:49.430Z,98208.66
2023-03-05T02:12:16.434Z,98207.81
2023-03-05T02:14:46.911Z,98201.97
2023-03-05T02:17:13.623Z,98207.19
2023-03-05T02:19:52.508Z,98192.44
2023-03-05T02:22:21.431Z,98213.78
2023-03-05T02:24:47.945Z,98202.91
2023-03-05T02:27:15.062Z,98200.72
2023-03-05T02:29:45.531Z,98201.63
2023-03-05T02:32:13.184Z,98199.56
2023-03-05T02:34:39.922Z,98193.50
2023-03-05T02:37:09.149Z,98190.75
2023-03-05T02:39:39.824Z,98187.28
2023-03-05T02:42:06.846Z,98182.06
2023-03-05T02:44:33.743Z,98181.88
2023-03-05T02:47:00.294Z,98173.16
2023-03-05T02:49:27.209Z,98180.84
2023-03-05T02:51:53.796Z,98169.56
2023-03-05T02:54:20.588Z,98176.16
2023-03-05T02:56:46.997Z,98169.78
2023-03-05T02:59:13.399Z,98168.72
2023-03-05T03:01:39.901Z,98160.28
2023-03-05T03:04:06.531Z,98162.28
2023-03-05T03:06:33.007Z,98162.28
2023-03-05T03:08:59.405Z,98149.25
2023-03-05T03:11:25.878Z,98152.97
2023-03-05T03:13:52.319Z,98153.91
2023-03-05T03:16:18.838Z,98147.97
2023-03-05T03:18:49.029Z,98152.22
2023-03-05T03:21:20.895Z,98149.59
2023-03-05T03:23:47.402Z,98158.56
2023-03-05T03:26:13.801Z,98165.72
2023-03-05T03:28:40.305Z,98165.00
2023-03-05T03:31:07.129Z,98160.41
2023-03-05T03:33:33.590Z,98164.84
2023-03-05T03:36:00.616Z,98165.56
2023-03-05T03:38:27.063Z,98156.50
2023-03-05T03:40:53.519Z,98168.03
2023-03-05T03:43:19.943Z,98151.03
2023-03-05T03:45:46.429Z,98164.03
2023-03-05T03:48:12.852Z,98160.91
2023-03-05T03:50:40.773Z,98159.25
2023-03-05T03:53:07.526Z,98152.28
2023-03-05T03:55:34.976Z,98145.09
2023-03-05T03:58:03.792Z,98158.31
2023-03-05T04:00:30.566Z,98162.97
2023-03-05T04:02:56.978Z,98146.56
2023-03-05T04:05:23.653Z,98149.34
2023-03-05T04:07:50.077Z,98154.94
2023-03-05T04:10:16.706Z,98147.38
2023-03-05T04:12:43.590Z,98135.47
2023-03-05T04:15:10.835Z,98125.22
2023-03-05T04:17:37.319Z,98114.06
2023-03-05T04:20:06.164Z,98113.13
2023-03-05T04:22:32.634Z,98103.97
2023-03-05T04:25:00.891Z,98103.19
2023-03-05T04:27:27.290Z,98089.81
2023-03-05T04:29:53.770Z,98084.59
2023-03-05T04:32:23.233Z,98089.81
2023-03-05T04:34:49.768Z,98089.16
2023-03-05T04:37:16.279Z,98080.56
2023-03-05T04:39:42.696Z,98080.97
2023-03-05T04:42:10.510Z,98079.50
2023-03-05T04:44:38.694Z,98085.66
2023-03-05T04:47:05.448Z,98067.75
2023-03-05T04:49:31.852Z,98059.63
2023-03-05T04:51:58.796Z,98053.13
2023-03-05T04:54:30.190Z,98043.47
2023-03-05T04:56:56.695Z,98052.72
2023-03-05T04:59:23.172Z,98051.66
2023-03-05T05:01:49.640Z,98045.16
2023-03-05T05:04:16.144Z,98029.44
2023-03-05T05:06:43.120Z,98018.28
2023-03-05T05:09:09.577Z,98033.59
2023-03-05T05:11:36.001Z,98023.06
2023-03-05T05:14:02.562Z,98022.34
2023-03-05T05:16:29.023Z,98019.06
2023-03-05T05:18:55.473Z,98021.44
2023-03-05T05:21:22.241Z,98017.00
2023-03-05T05:23:48.697Z,98022.34
2023-03-05T05:26:15.358Z,98014.28
2023-03-05T05:28:43.584Z,98024.72
2023-03-05T05:31:14.552Z,98032.34
2023-03-05T05:33:41.765Z,98014.91
2023-03-05T05:36:11.309Z,98029.91
2023-03-05T05:38:37.758Z,98026.41
2023-03-05T05:41:10.333Z,98028.38
2023-03-05T05:43:37.969Z,98010.97
2023-03-05T05:46:07.013Z,98024.06
2023-03-05T05:48:35.281Z,98024.91
2023-03-05T05:51:10.118Z,98037.81
2023-03-05T05:53:37.642Z,98036.97
2023-03-05T05:56:05.755Z,98028.44
2023-03-05T05:58:32.167Z,98031.63
2023-03-05T06:00:58.565Z,98038.03
2023-03-05T06:03:25.101Z,98039.09
2023-03-05T06:05:54.178Z,98042.34
2023-03-05T06:08:20.593Z,98042.47
2023-03-05T06:10:54.274Z,98040.34
2023-03-05T06:13:20.614Z,98045.09
2023-03-05T06:15:56.732Z,98030.97
2023-03-05T06:18:23.406Z,98046.59
2023-03-05T06:20:57.274Z,98048.47
2023-03-05T06:23:24.438Z,98038.25
2023-03-05T06:25:51.135Z,98043.75
2023-03-05T06:28:18.969Z,98045.56
2023-03-05T06:30:45.489Z,98054.69
2023-03-05T06:33:12.220Z,98039.03
2023-03-05T06:35:42.195Z,98039.50
2023-03-05T06:38:09.468Z,98039.03
2023-03-05T06:40:39.183Z,98036.75
2023-03-05T06:43:05.784Z,98043.16
2023-03-05T06:45:32.184Z,98029.50
2023-03-05T06:47:58.604Z,98021.72
2023-03-05T06:50:25.016Z,98034.06
2023-03-05T06:52:51.506Z,98029.06
2023-03-05T06:55:18.843Z,98030.03
2023-03-05T06:57:45.395Z,98022.91
2023-03-05T07:00:12.574Z,98028.31
2023-03-05T07:02:39.083Z,98034.06
2023-03-05T07:05:07.573Z,98032.47
2023-03-05T07:07:34.939Z,98032.34
2023-03-05T07:10:01.864Z,98039.19
2023-03-05T07:12:28.335Z,98040.69
2023-03-05T07:14:54.779Z,98029.81
2023-03-05T07:17:21.220Z,98038.97
2023-03-05T07:19:47.636Z,98037.06
2023-03-05T07:22:14.088Z,98028.09
2023-03-05T07:24:40.533Z,98030.06
2023-03-05T07:27:06.971Z,98033.88
2023-03-05T07:29:33.356Z,98036.72
2023-03-05T07:32:01.677Z,98037.81
2023-03-05T07:34:32.278Z,98032.41
2023-03-05T07:36:59.080Z,98035.13
2023-03-05T07:39:25.730Z,98039.66
2023-03-05T07:41:53.202Z,98042.13
2023-03-05T07:44:20.402Z,98018.63
2023-03-05T07:46:47.129Z,98021.63
2023-03-05T07:49:13.648Z,98010.22
2023-03-05T07:51:40.796Z,98006.88
2023-03-05T07:54:07.751Z,97994.41
2023-03-05T07:56:35.831Z,98006.41
2023-03-05T07:59:06.329Z,98001.75
2023-03-05T08:01:36.409Z,98008.19
2023-03-05T08:04:04.405Z,98003.56
2023-03-05T08:06:33.197Z,97995.25
2023-03-05T08:09:00.461Z,97984.06
2023-03-05T08:11:28.555Z,97989.78
2023-03-05T08:13:55.569Z,97986.69
2023-03-05T08:16:22.282Z,97978.25
2023-03-05T08:18:48.952Z,97976.59
2023-03-05T08:21:29.605Z,97979.06
2023-03-05T08:23:57.708Z,97996.22
2023-03-05T08:26:26.713Z,97956.50
2023-03-05T08:28:53.699Z,97992.00
2023-03-05T08:31:23.732Z,97985.69
2023-03-05T08:33:51.962Z,98005.38
2023-03-05T08:36:18.916Z,98019.00
2023-03-05T08:38:46.863Z,98013.47
2023-03-05T08:41:13.347Z,97975.47
2023-03-05T08:43:44.015Z,98005.59
2023-03-05T08:46:12.373Z,98015.94
2023-03-05T08:48:39.493Z,97984.22
2023-03-05T08:51:08.430Z,98007.19
2023-03-05T08:53:35.155Z,97998.13
2023-03-05T08:56:01.751Z,97992.75
2023-03-05T08:58:29.336Z,98006.53
2023-03-05T09:00:56.651Z,98004.78
2023-03-05T09:03:23.211Z,98007.94
2023-03-05T09:05:49.801Z,97995.84
2023-03-05T09:08:16.249Z,97993.94
2023-03-05T09:10:50.584Z,97996.72
2023-03-05T09:13:17.269Z,98011.91
2023-03-05T09:15:44.313Z,97987.38
2023-03-05T09:18:10.809Z,97990.78
2023-03-05T09:20:38.363Z,97972.75
2023-03-05T09:23:05.208Z,97984.44
2023-03-05T09:25:31.751Z,97986.69
2023-03-05T09:27:58.659Z,97970.06
2023-03-05T09:30:25.216Z,97947.19
2023-03-05T09:32:51.914Z,97951.25
2023-03-05T09:35:18.456Z,97940.13
2023-03-05T09:37:44.909Z,97923.44
2023-03-05T09:40:19.583Z,97946.50
2023-03-05T09:43:23.275Z,97947.84
2023-03-05T09:46:04.358Z,97926.91
2023-03-05T09:48:47.593Z,97923.81
2023-03-05T09:51:22.087Z,97926.44
2023-03-05T09:54:03.035Z,97923.22
2023-03-05T09:56:42.714Z,97917.34
2023-03-05T09:59:25.530Z,97913.78
2023-03-05T10:02:03.850Z,97911.16
2023-03-05T10:04:45.763Z,97910.75
2023-03-05T10:07:30.077Z,97903.91
2023-03-05T10:10:00.420Z,97886.03
2023-03-05T10:12:42.384Z,97907.72
2023-03-05T10:15:13.432Z,97898.25
2023-03-05T10:17:55.287Z,97899.84
2023-03-05T10:20:34.006Z,97892.88
2023-03-05T10:23:04.339Z,97892.34
2023-03-05T10:25:49.635Z,97881.94
2023-03-05T10:28:21.637Z,97864.66
2023-03-05T10:30:51.266Z,97863.72
2023-03-05T10:33:23.550Z,97865.38
2023-03-05T10:36:08.121Z,97858.25
2023-03-05T10:38:51.786Z,97851.25
2023-03-05T10:41:27.304Z,97854.72
2023-03-05T10:44:11.513Z,97864.56
2023-03-05T10:46:39.847Z,97901.88
2023-03-05T10:49:29.156Z,97927.94
2023-03-05T10:52:01.490Z,97943.78
2023-03-05T10:54:30.274Z,97960.53
2023-03-05T10:57:18.429Z,97972.13
2023-03-05T10:59:54.165Z,97996.06
2023-03-05T11:02:22.192Z,98003.50
2023-03-05T11:04:50.421Z,98022.44
2023-03-05T11:07:16.797Z,98045.34
2023-03-05T11:10:04.441Z,98074.13
2023-03-05T11:12:32.506Z,98071.56
2023-03-05T11:15:04.210Z,98040.91
2023-03-05T11:17:37.793Z,98001.56
2023-03-05T11:20:37.010Z,98010.59
2023-03-05T11:23:24.913Z,98012.06
2023-03-05T11:26:12.455Z,98015.66
2023-03-05T11:28:41.933Z,98017.75
2023-03-05T11:31:08.524Z,98000.44
2023-03-05T11:33:37.440Z,97952.22
2023-03-05T11:36:20.047Z,97903.16
2023-03-05T11:38:52.920Z,97855.19
2023-03-05T11:41:26.945Z,97842.44
2023-03-05T11:43:54.526Z,97830.25
2023-03-05T11:46:22.534Z,97827.25
2023-03-05T11:48:50.270Z,97831.38
2023-03-05T11:51:25.673Z,97831.97
2023-03-05T11:53:57.937Z,97841.06
2023-03-05T11:56:28.194Z,97831.88
2023-03-05T11:59:19.246Z,97785.16
2023-03-05T12:01:49.261Z,97776.03
2023-03-05T12:04:17.202Z,97782.88
2023-03-05T12:06:52.814Z,97780.00
2023-03-05T12:09:41.160Z,97773.00
2023-03-05T12:12:28.632Z,97755.22
2023-03-05T12:15:05.256Z,97757.19
2023-03-05T12:17:47.959Z,97738.66
2023-03-05T12:20:35.410Z,97722.75
2023-03-05T12:23:02.107Z,97716.41
2023-03-05T12:25:33.053Z,97715.94
2023-03-05T12:28:00.210Z,97718.72
2023-03-05T12:30:35.774Z,97704.63
2023-03-05T12:33:04.363Z,97707.41
2023-03-05T12:35:37.074Z,97708.78
2023-03-05T12:38:26.771Z,97707.16
2023-03-05T12:40:53.823Z,97702.16
2023-03-05T12:43:32.053Z,97711.84
2023-03-05T12:46:38.256Z,97725.66
2023-03-05T12:49:28.611Z,97744.19
2023-03-05T12:51:57.280Z,97736.59
2023-03-05T12:54:34.941Z,97725.97
2023-03-05T12:57:06.201Z,97715.78
2023-03-05T12:59:43.214Z,97700.03
2023-03-05T13:02:32.556Z,97697.84
2023-03-05T13:05:02.791Z,97705.69
2023-03-05T13:07:29.196Z,97694.50
2023-03-05T13:09:57.553Z,97701.97
2023-03-05T13:12:26.115Z,97695.34
2023-03-05T13:15:02.471Z,97690.09
2023-03-05T13:17:51.213Z,97682.94
2023-03-05T13:20:23.773Z,97689.81
2023-03-05T13:23:05.512Z,97682.50
2023-03-05T13:25:31.996Z,97677.41
2023-03-05T13:28:07.041Z,97679.47
2023-03-05T13:30:34.730Z,97662.22
2023-03-05T13:33:04.056Z,97696.44
2023-03-05T13:35:44.164Z,97700.50
2023-03-05T13:38:24.493Z,97685.66
2023-03-05T13:41:04.955Z,97692.16
2023-03-05T13:43:31.890Z,97669.84
2023-03-05T13:45:59.477Z,97675.94
2023-03-05T13:48:27.425Z,97666.88
2023-03-05T13:50:56.992Z,97660.47
2023-03-05T13:53:26.540Z,97652.56
2023-03-05T13:55:57.232Z,97637.31
2023-03-05T13:58:50.778Z,97642.09
2023-03-05T14:01:28.373Z,97644.44
2023-03-05T14:03:58.777Z,97636.00
2023-03-05T14:06:28.259Z,97639.03
2023-03-05T14:09:02.961Z,97645.09
2023-03-05T14:11:30.009Z,97656.16
2023-03-05T14:14:05.987Z,97659.06
2023-03-05T14:16:33.776Z,97665.81
2023-03-05T14:19:02.541Z,97656.16
2023-03-05T14:21:48.296Z,97659.34
2023-03-05T14:24:22.798Z,97665.09
2023-03-05T14:27:05.568Z,97675.63
2023-03-05T14:29:32.926Z,97675.19
2023-03-05T14:32:21.441Z,97641.56
2023-03-05T14:34:54.772Z,97642.91
2023-03-05T14:37:23.935Z,97640.72
2023-03-05T14:39:59.559Z,97618.22
2023-03-05T14:42:39.054Z,97598.91
2023-03-05T14:45:18.251Z,97603.59
2023-03-05T14:47:45.220Z,97584.72
2023-03-05T14:50:23.932Z,97587.75
2023-03-05T14:52:53.497Z,97596.00
2023-03-05T14:55:24.488Z,97579.19
2023-03-05T14:57:53.438Z,97585.53
2023-03-05T15:00:28.897Z,97582.19
2023-03-05T15:02:55.417Z,97572.84
2023-03-05T15:05:22.007Z,97582.97
2023-03-05T15:07:49.082Z,97568.91
2023-03-05T15:10:18.530Z,97562.78
2023-03-05T15:12:45.300Z,97556.13
2023-03-05T15:15:14.707Z,97557.38
2023-03-05T15:17:43.564Z,97560.41
2023-03-05T15:20:21.150Z,97557.69
2023-03-05T15:22:47.927Z,97552.72
2023-03-05T15:25:14.854Z,97561.19
2023-03-05T15:27:41.387Z,97561.47
2023-03-05T15:30:24.842Z,97554.34
2023-03-05T15:32:52.977Z,97548.41
2023-03-05T15:35:19.641Z,97540.53
2023-03-05T15:37:46.326Z,97540.53
2023-03-05T15:40:13.222Z,97535.31
2023-03-05T15:42:40.018Z,97540.66
2023-03-05T15:45:07.526Z,97532.97
2023-03-05T15:47:33.914Z,97538.34
2023-03-05T15:50:00.433Z,97534.53
2023-03-05T15:52:27.029Z,97529.84
2023-03-05T15:54:53.452Z,97538.66
2023-03-05T15:57:23.994Z,97542.00
2023-03-05T15:59:50.412Z,97536.44
2023-03-05T16:02:16.830Z,97527.66
2023-03-05T16:04:43.236Z,97537.25
2023-03-05T16:07:10.063Z,97531.22
2023-03-05T16:09:41.349Z,97521.91
2023-03-05T16:12:12.229Z,97515.59
2023-03-05T16:14:40.468Z,97507.34
2023-03-05T16:17:07.872Z,97512.03
2023-03-05T16:19:36.832Z,97496.47
2023-03-05T16:22:03.238Z,97498.69
2023-03-05T16:24:29.692Z,97490.94
2023-03-05T16:26:56.256Z,97494.38
2023-03-05T16:29:22.633Z,97485.69
2023-03-05T16:31:49.336Z,97491.78
2023-03-05T16:34:16.337Z,97484.47
2023-03-05T16:36:52.657Z,97489.09
2023-03-05T16:39:20.809Z,97484.56
2023-03-05T16:41:48.180Z,97470.06
2023-03-05T16:44:14.542Z,97474.91
2023-03-05T16:46:41.942Z,97477.09
2023-03-05T16:49:11.235Z,97479.81
2023-03-05T16:51:42.074Z,97473.91
2023-03-05T16:54:10.261Z,97470.84
2023-03-05T16:56:37.096Z,97467.00
2023-03-05T16:59:04.230Z,97464.25
2023-03-05T17:01:31.994Z,97475.63
2023-03-05T17:03:59.973Z,97473.72
2023-03-05T17:06:29.077Z,97465.47
2023-03-05T17:08:56.228Z,97464.91
2023-03-05T17:11:23.246Z,97463.03
2023-03-05T17:13:49.620Z,97465.16
2023-03-05T17:16:18.401Z,97464.63
2023-03-05T17:18:45.283Z,97458.31
2023-03-05T17:21:13.797Z,97459.41
2023-03-05T17:23:40.666Z,97458.56
2023-03-05T17:26:10.426Z,97458.56
2023-03-05T17:28:37.084Z,97455.00
2023-03-05T17:31:04.362Z,97455.00
2023-03-05T17:33:36.972Z,97449.78
2023-03-05T17:36:04.476Z,97457.19
2023-03-05T17:38:31.247Z,97451.00
2023-03-05T17:40:57.715Z,97455.78
2023-03-05T17:43:25.067Z,97450.31
2023-03-05T17:45:51.634Z,97444.00
2023-03-05T17:48:20.099Z,97444.38
2023-03-05T17:50:46.766Z,97448.78
2023-03-05T17:53:13.351Z,97446.75
2023-03-05T17:55:41.599Z,97437.50
2023-03-05T17:58:08.584Z,97438.72
2023-03-05T18:00:35.796Z,97442.03
2023-03-05T18:03:03.198Z,97433.50
2023-03-05T18:05:29.665Z,97435.03
2023-03-05T18:07:56.360Z,97431.53
2023-03-05T18:10:25.521Z,97425.06
2023-03-05T18:12:57.059Z,97421.06
2023-03-05T18:15:26.948Z,97424.78
2023-03-05T18:17:53.968Z,97410.91
2023-03-05T18:20:33.802Z,97418.59
2023-03-05T18:23:01.455Z,97407.22
2023-03-05T18:25:31.863Z,97404.19
2023-03-05T18:28:03.971Z,97412.56
2023-03-05T18:30:32.779Z,97406.22
2023-03-05T18:32:59.492Z,97393.56
2023-03-05T18:35:27.457Z,97393.56
2023-03-05T18:37:53.836Z,97395.75
2023-03-05T18:40:22.818Z,97393.56
2023-03-05T18:42:49.911Z,97393.25
2023-03-05T18:45:18.910Z,97391.88
2023-03-05T18:47:46.800Z,97381.59
2023-03-05T18:50:16.829Z,97383.09
2023-03-05T18:52:43.339Z,97374.56
2023-03-05T18:55:42.683Z,97372.34
2023-03-05T18:58:09.895Z,97379.78
2023-03-05T19:00:38.723Z,97357.34
2023-03-05T19:03:05.887Z,97366.88
2023-03-05T19:05:33.567Z,97366.88
2023-03-05T19:08:00.954Z,97364.38
2023-03-05T19:10:28.223Z,97357.50
2023-03-05T19:13:15.827Z,97347.06
2023-03-05T19:15:46.418Z,97356.53
2023-03-05T19:18:13.585Z,97347.63
2023-03-05T19:20:40.164Z,97340.59
2023-03-05T19:23:06.569Z,97341.59
2023-03-05T19:25:33.700Z,97343.03
2023-03-05T19:28:01.557Z,97336.88
2023-03-05T19:30:28.277Z,97325.06
2023-03-05T19:32:54.638Z,97322.59
2023-03-05T19:35:21.139Z,97319.03
2023-03-05T19:37:47.609Z,97319.97
2023-03-05T19:40:14.688Z,97303.88
2023-03-05T19:42:42.954Z,97312.13
2023-03-05T19:45:09.728Z,97305.97
2023-03-05T19:47:36.647Z,97299.78
2023-03-05T19:50:05.709Z,97295.09
2023-03-05T19:52:32.263Z,97293.19
2023-03-05T19:54:59.879Z,97282.56
2023-03-05T19:57:26.513Z,97289.88
2023-03-05T19:59:53.799Z,97287.94
2023-03-05T20:02:21.885Z,97287.13
2023-03-05T20:04:49.255Z,97279.69
2023-03-05T20:07:17.014Z,97274.03
2023-03-05T20:09:44.105Z,97273.09
2023-03-05T20:12:10.671Z,97272.84
2023-03-05T20:14:38.111Z,97269.25
2023-03-05T20:17:04.533Z,97263.91
2023-03-05T20:19:31.029Z,97253.84
2023-03-05T20:21:58.628Z,97258.69
2023-03-05T20:24:25.416Z,97253.31
2023-03-05T20:26:52.204Z,97248.38
2023-03-05T20:29:19.069Z,97248.38
2023-03-05T20:31:47.384Z,97250.03
2023-03-05T20:34:18.061Z,97248.38
2023-03-05T20:36:45.699Z,97248.38
2023-03-05T20:39:12.288Z,97235.56
2023-03-05T20:41:40.212Z,97239.97
2023-03-05T20:44:08.039Z,97227.19
2023-03-05T20:46:37.157Z,97225.28
2023-03-05T20:49:04.538Z,97227.75
2023-03-05T20:51:37.847Z,97223.88
2023-03-05T20:54:10.054Z,97221.84
2023-03-05T20:56:37.484Z,97206.59
2023-03-05T20:59:08.471Z,97210.97
2023-03-05T21:01:38.142Z,97208.34
2023-03-05T21:04:05.368Z,97200.22
2023-03-05T21:06:33.169Z,97193.66
2023-03-05T21:09:00.239Z,97199.44
2023-03-05T21:11:27.672Z,97185.97
2023-03-05T21:13:54.279Z,97196.97
2023-03-05T21:16:27.162Z,97179.63
2023-03-05T21:18:55.832Z,97181.31
2023-03-05T21:21:22.446Z,97175.53
2023-03-05T21:23:48.824Z,97168.63
2023-03-05T21:26:15.329Z,97173.47
2023-03-05T21:31:22.262Z,97160.28
2023-03-05T21:33:49.559Z,97152.13
2023-03-05T21:36:19.377Z,97147.75
2023-03-05T21:38:49.334Z,97146.38
2023-03-05T21:41:17.994Z,97137.72
2023-03-05T21:43:44.462Z,97129.34
2023-03-05T21:46:11.920Z,97142.53
2023-03-05T21:48:38.469Z,97120.00
2023-03-05T21:51:08.819Z,97123.31
2023-03-05T21:53:35.815Z,97110.53
2023-03-05T21:56:18.155Z,97101.88
2023-03-05T21:58:44.822Z,97094.16
2023-03-05T22:01:12.156Z,97082.09
2023-03-05T22:03:38.753Z,97076.84
2023-03-05T22:06:09.867Z,97080.16
2023-03-05T22:08:36.512Z,97080.69
2023-03-05T22:11:08.655Z,97060.78
2023-03-05T22:13:37.151Z,97066.28
2023-03-05T22:16:04.002Z,97068.50
2023-03-05T22:18:32.216Z,97051.44
2023-03-05T22:21:00.418Z,97052.94
2023-03-05T22:23:30.767Z,97039.63
2023-03-05T22:25:57.617Z,97035.63
2023-03-05T22:28:24.607Z,97032.34
2023-03-05T22:30:51.125Z,97017.78
2023-03-05T22:33:17.581Z,97014.78
2023-03-05T22:35:44.429Z,97002.97
2023-03-05T22:38:11.402Z,96999.94
2023-03-05T22:40:41.720Z,96991.88
2023-03-05T22:43:08.236Z,96982.09
2023-03-05T22:45:34.679Z,96979.78
2023-03-05T22:48:01.359Z,96974.41
2023-03-05T22:50:27.828Z,96960.81
2023-03-05T22:52:54.421Z,96963.03
2023-03-05T22:55:21.130Z,96945.31
2023-03-05T22:57:47.618Z,96937.66
2023-03-05T23:00:21.388Z,96923.91
2023-03-05T23:02:47.961Z,96905.38
2023-03-05T23:05:14.409Z,96916.22
2023-03-05T23:07:42.717Z,96909.63
2023-03-05T23:10:11.168Z,96897.00
2023-03-05T23:12:41.400Z,96890.16
2023-03-05T23:15:11.984Z,96886.56
2023-03-05T23:17:38.566Z,96883.28
2023-03-05T23:20:08.318Z,96874.22
2023-03-05T23:22:36.235Z,96867.34
2023-03-05T23:25:02.774Z,96865.19
2023-03-05T23:27:29.410Z,96858.72
2023-03-05T23:30:16.267Z,96856.94
2023-03-05T23:32:47.789Z,96852.56
2023-03-05T23:35:17.349Z,96836.09
2023-03-05T23:37:43.820Z,96837.88
2023-03-05T23:40:14.960Z,96827.72
2023-03-05T23:42:42.074Z,96813.31
2023-03-05T23:45:10.499Z,96822.38
2023-03-05T23:47:37.862Z,96807.84
2023-03-05T23:50:08.296Z,96780.16
2023-03-05T23:52:35.531Z,96800.16
2023-03-05T23:55:02.204Z,96797.69
2023-03-05T23:57:28.762Z,96791.53
2023-03-05T23:59:55.211Z,96770.38
